Main page
METAR-TAF:

METAR-TAF

Airports :

Pelotas International Airport

Pelotas, Rio Grande do Sul, Brazil

latitude: 31-52S, longitude: 052-21W, elevation: 13 m

Current weather observation

The report was made 3 hours and 9 minutes ago, at 00:00 UTC
Wind 6 kt from the South
Temperature 11°C
Humidity 82%
Pressure 1027 hPa
Visibility 10 km or more
no clouds below 1500 m and no cumulonimbus

METAR: SBPK 100000Z 18006KT CAVOK 11/08 Q1027

Time: 00:09 (03:09 UTC)

Forecast

The report was made 12 hours and 9 minutes ago, at 15:00 UTC
Forecast valid from 09 at 18 UTC to 10 at 18 UTC
Wind 12 kt from the South
Visibility: 7000 m
Scattered clouds at a height of 1700 ft
Scattered clouds at a height of 4500 ft

TAF: SBPK 091500Z 0918/1018 17012KT 7000 SCT017 SCT045 TN09/1009Z TX16/1017Z RMK PEU

Weather observations and forecasts of more than 4000 airports (METAR and TAF reports).

The available stations are represented by yellow and red dots on the map.

Hover mouse over dot to see the name of the station.

Then click to see weather observations and forecasts.

To change the map : click on the green buttons with a black cross to zoom in, on the green button with a dash to zoom out, or on the green arrows for adjacent maps.


METAR-TAF: